Terminal Aerodrome Forecast
Issued by NWS

Home | Current Version | Previous Version | Text Only | Print | Product List | Glossary On
Versions: 1 2 3 4 5 6 7 8 9 10 11 12 13 14 15 16 17 18 19 20 21
426
FTUS46 KSEW 162321
TAFHQM
TAF
KHQM 162321Z 1700/1724 24013KT P6SM BKN012 BKN045
     FM170200 26009KT P6SM OVC012
     FM170600 28005KT 6SM BR OVC009
     FM171200 VRB03KT 3SM BR OVC005
     FM171800 22007KT P6SM OVC010
     FM172000 25013KT P6SM FEW015 SCT250=

USA.gov is the U.S. government's official web portal to all federal, state and local government web resources and services.